^^
Meteo Knjazevac Station Historical Data
Daily Summary for April 13, 2021 Units:  Metric    English   Both
Daily Weekly Monthly Yearly Custom
  High: Low: Average:
Temperature: 12.5 °C -3.6 °C 2.8 °C
Dew Point: 8.3 °C -4.2 °C 1.3 °C
Humidity: 99% 74% 91%
Wind Speed: 8km/h 0km/h 1.6km/h
Wind Gust: 14.5km/h - -
Wind- - SW
Pressure: 1025.3 hPa 1021.9 hPa -
Precipitation: 0 mm    
Historical Graphs
 
 
Tabular Data for April 13, 2021
Time Temperature Dew Point Pressure Wind Wind Speed Wind Gust Humidity Rainfall Rate (Hourly) solar Conditions
00:00 -0.7 °C -1.6 °C 1024.3 hPa Calm     94% 0 mm 0 W/m2
00:10 -0.9 °C -1.7 °C 1024.3 hPa NW 1.6 km/h 3.2 km/h 94% 0 mm 0 W/m2
00:20 -1 °C -1.8 °C 1024.3 hPa Calm   3.2 km/h 94% 0 mm 0 W/m2
00:30 -1 °C -1.7 °C 1024.3 hPa WNW 1.6 km/h 3.2 km/h 95% 0 mm 0 W/m2
00:40 -1.1 °C -1.8 °C 1024.3 hPa NW 1.6 km/h 3.2 km/h 95% 0 mm 0 W/m2
00:50 -1.2 °C -1.8 °C 1024.3 hPa WNW 3.2 km/h 6.4 km/h 96% 0 mm 0 W/m2
01:00 -1.1 °C -1.7 °C 1024.3 hPa Calm   6.4 km/h 96% 0 mm 0 W/m2
01:10 -1.1 °C -1.7 °C 1024.3 hPa Calm   3.2 km/h 96% 0 mm 0 W/m2
01:20 -1.2 °C -1.8 °C 1024.3 hPa Calm   3.2 km/h 96% 0 mm 0 W/m2
01:30 -1.3 °C -2 °C 1024.3 hPa NNW 1.6 km/h 3.2 km/h 95% 0 mm 0 W/m2
01:40 -1.4 °C -1.9 °C 1024.3 hPa NW 1.6 km/h 4.8 km/h 96% 0 mm 0 W/m2
01:50 -1.5 °C -2.2 °C 1024.3 hPa Calm   3.2 km/h 95% 0 mm 0 W/m2
02:00 -1.7 °C -2.4 °C 1024.3 hPa Calm   3.2 km/h 95% 0 mm 0 W/m2
02:10 -1.8 °C -2.5 °C 1024.3 hPa Calm   3.2 km/h 95% 0 mm 0 W/m2
02:20 -1.9 °C -2.6 °C 1024.3 hPa Calm   3.2 km/h 95% 0 mm 0 W/m2
02:30 -2 °C -2.7 °C 1023.9 hPa Calm   3.2 km/h 95% 0 mm 0 W/m2
02:40 -2.1 °C -2.8 °C 1023.9 hPa Calm   1.6 km/h 95% 0 mm 0 W/m2
02:50 -2.1 °C -2.7 °C 1023.9 hPa North 1.6 km/h 3.2 km/h 96% 0 mm 0 W/m2
03:00 -2.2 °C -2.9 °C 1023.9 hPa NW 3.2 km/h 4.8 km/h 95% 0 mm 0 W/m2
03:10 -2.2 °C -2.8 °C 1023.9 hPa North 1.6 km/h 4.8 km/h 96% 0 mm 0 W/m2
03:20 -2.2 °C -2.8 °C 1023.9 hPa Calm   3.2 km/h 96% 0 mm 0 W/m2
03:30 -2.3 °C -2.8 °C 1023.9 hPa Calm   3.2 km/h 96% 0 mm 0 W/m2
03:40 -2.5 °C -3.2 °C 1023.9 hPa WNW 1.6 km/h 3.2 km/h 95% 0 mm 0 W/m2
03:50 -2.6 °C -3.3 °C 1024.3 hPa West 1.6 km/h 4.8 km/h 95% 0 mm 0 W/m2
04:00 -2.7 °C -3.4 °C 1024.3 hPa WNW 3.2 km/h 4.8 km/h 95% 0 mm 0 W/m2
04:10 -2.8 °C -3.3 °C 1024.3 hPa WNW 3.2 km/h 4.8 km/h 96% 0 mm 0 W/m2
04:20 -2.9 °C -3.4 °C 1024.3 hPa West 1.6 km/h 3.2 km/h 96% 0 mm 0 W/m2
04:30 -3 °C -3.6 °C 1024.3 hPa West 1.6 km/h 3.2 km/h 96% 0 mm 0 W/m2
04:40 -3.1 °C -3.7 °C 1024.3 hPa WNW 3.2 km/h 3.2 km/h 96% 0 mm 0 W/m2
04:50 -3.2 °C -3.7 °C 1024.3 hPa WNW 3.2 km/h 4.8 km/h 96% 0 mm 0 W/m2
05:00 -3.3 °C -3.8 °C 1024.3 hPa WNW 3.2 km/h 4.8 km/h 96% 0 mm 0 W/m2
05:10 -3.3 °C -3.8 °C 1024.3 hPa West 1.6 km/h 4.8 km/h 96% 0 mm 0 W/m2
05:20 -3.4 °C -3.9 °C 1024.3 hPa WNW 1.6 km/h 3.2 km/h 96% 0 mm 0 W/m2
05:30 -3.4 °C -3.7 °C 1024.3 hPa WNW 1.6 km/h 3.2 km/h 98% 0 mm 0 W/m2
05:40 -3.4 °C -3.7 °C 1024.3 hPa West 3.2 km/h 3.2 km/h 98% 0 mm 0 W/m2
06:00 -3.5 °C -3.8 °C 1024.6 hPa Calm   3.2 km/h 98% 0 mm 0 W/m2
06:10 -3.5 °C -3.8 °C 1024.6 hPa NNW 1.6 km/h 3.2 km/h 98% 0 mm 0 W/m2
06:20 -3.6 °C -3.9 °C 1024.6 hPa NNW 1.6 km/h 3.2 km/h 98% 0 mm 0 W/m2
06:30 -3.6 °C -4.2 °C 1024.6 hPa WNW 1.6 km/h 3.2 km/h 96% 0 mm 7 W/m2
06:40 -3.6 °C -4.2 °C 1024.6 hPa NW 1.6 km/h 3.2 km/h 96% 0 mm 14 W/m2
06:50 -3.6 °C -3.9 °C 1024.6 hPa WNW 1.6 km/h 4.8 km/h 98% 0 mm 22 W/m2
07:00 -3.5 °C -3.8 °C 1024.9 hPa WNW 1.6 km/h 3.2 km/h 98% 0 mm 31 W/m2
07:10 -3.4 °C -3.7 °C 1024.9 hPa Calm   3.2 km/h 98% 0 mm 47 W/m2
07:20 -3.2 °C -3.3 °C 1024.9 hPa West 1.6 km/h 3.2 km/h 99% 0 mm 50 W/m2
07:30 -3.1 °C -3.2 °C 1024.9 hPa Calm   3.2 km/h 99% 0 mm 67 W/m2
07:40 -2.9 °C -3.1 °C 1024.9 hPa Calm   3.2 km/h 99% 0 mm 72 W/m2
07:50 -2.7 °C -2.8 °C 1024.9 hPa NW 3.2 km/h 4.8 km/h 99% 0 mm 84 W/m2
08:00 -2.5 °C -2.6 °C 1024.9 hPa NW 1.6 km/h 4.8 km/h 99% 0 mm 108 W/m2
08:10 -2.2 °C -2.3 °C 1024.9 hPa Calm   3.2 km/h 99% 0 mm 108 W/m2
08:20 -1.9 °C -2.1 °C 1025.3 hPa WNW 1.6 km/h 3.2 km/h 99% 0 mm 121 W/m2
08:30 -1.7 °C -1.8 °C 1024.9 hPa West 1.6 km/h 4.8 km/h 99% 0 mm 153 W/m2
08:40 -1.4 °C -1.6 °C 1024.9 hPa Calm   3.2 km/h 99% 0 mm 167 W/m2
08:50 -1.1 °C -1.3 °C 1024.9 hPa Calm   3.2 km/h 99% 0 mm 167 W/m2
09:00 -0.8 °C -0.9 °C 1024.9 hPa WNW 1.6 km/h 3.2 km/h 99% 0 mm 176 W/m2
09:10 -0.3 °C -0.4 °C 1024.9 hPa Calm   3.2 km/h 99% 0 mm 223 W/m2
09:20 0.2 °C 0.1 °C 1024.9 hPa WSW 1.6 km/h 4.8 km/h 99% 0 mm 286 W/m2
09:30 0.7 °C 0.6 °C 1024.9 hPa WSW 1.6 km/h 4.8 km/h 99% 0 mm 314 W/m2
09:40 1.4 °C 1.2 °C 1024.9 hPa SSW 1.6 km/h 4.8 km/h 99% 0 mm 314 W/m2
09:50 2.1 °C 1.9 °C 1024.9 hPa Calm   6.4 km/h 99% 0 mm 341 W/m2
10:00 2.6 °C 2 °C 1024.9 hPa Calm   8 km/h 96% 0 mm 361 W/m2
10:10 3.3 °C 2.6 °C 1024.9 hPa Calm   4.8 km/h 95% 0 mm 382 W/m2
10:20 4 °C 2.9 °C 1024.9 hPa NE 3.2 km/h 6.4 km/h 93% 0 mm 387 W/m2
10:30 4.5 °C 3.2 °C 1024.6 hPa ENE 3.2 km/h 11.3 km/h 91% 0 mm 413 W/m2
10:40 5.2 °C 4.2 °C 1024.6 hPa North 3.2 km/h 11.3 km/h 93% 0 mm 407 W/m2
10:50 6 °C 4.6 °C 1024.6 hPa NNE 4.8 km/h 11.3 km/h 91% 0 mm 406 W/m2
11:00 6.6 °C 5.1 °C 1024.3 hPa NNE 3.2 km/h 14.5 km/h 90% 0 mm 425 W/m2
11:10 7.2 °C 5.3 °C 1024.3 hPa NNE 4.8 km/h 9.7 km/h 88% 0 mm 418 W/m2
11:20 7.5 °C 5.3 °C 1024.3 hPa ENE 1.6 km/h 8 km/h 86% 0 mm 420 W/m2
11:30 7.8 °C 5.4 °C 1024.3 hPa East 4.8 km/h 8 km/h 85% 0 mm 317 W/m2
11:40 8 °C 5.6 °C 1023.9 hPa ENE 1.6 km/h 9.7 km/h 85% 0 mm 382 W/m2
11:50 8.5 °C 5.9 °C 1023.6 hPa ESE 3.2 km/h 9.7 km/h 84% 0 mm 290 W/m2
12:00 8.9 °C 6.3 °C 1023.6 hPa ENE 3.2 km/h 11.3 km/h 84% 0 mm 325 W/m2
12:10 9.4 °C 6.7 °C 1023.2 hPa NNE 1.6 km/h 12.9 km/h 83% 0 mm 290 W/m2
12:20 9.9 °C 7.2 °C 1023.2 hPa NE 4.8 km/h 11.3 km/h 83% 0 mm 306 W/m2
12:30 10.4 °C 7.1 °C 1023.2 hPa North 4.8 km/h 9.7 km/h 80% 0 mm 259 W/m2
12:40 10.7 °C 7.4 °C 1022.9 hPa North 1.6 km/h 9.7 km/h 80% 0 mm 348 W/m2
12:50 11.2 °C 7.7 °C 1022.9 hPa North 8 km/h 11.3 km/h 79% 0 mm 357 W/m2
13:00 11.5 °C 7.6 °C 1022.9 hPa NW 4.8 km/h 11.3 km/h 77% 0 mm 343 W/m2
13:10 11.7 °C 7.8 °C 1022.6 hPa WSW 1.6 km/h 8 km/h 77% 0 mm 327 W/m2
13:20 12.1 °C 8.2 °C 1022.6 hPa North 4.8 km/h 12.9 km/h 77% 0 mm 304 W/m2
13:30 12.2 °C 8.3 °C 1022.6 hPa NNE 4.8 km/h 11.3 km/h 77% 0 mm 293 W/m2
13:40 12.2 °C 7.9 °C 1022.2 hPa North 4.8 km/h 11.3 km/h 75% 0 mm 274 W/m2
13:50 12.3 °C 8 °C 1022.2 hPa North 4.8 km/h 11.3 km/h 75% 0 mm 254 W/m2
14:00 12.5 °C 8 °C 1022.2 hPa North 8 km/h 12.9 km/h 74% 0 mm 207 W/m2
14:10 12.5 °C 8 °C 1022.2 hPa North 1.6 km/h 11.3 km/h 74% 0 mm 178 W/m2
14:20 12.5 °C 8 °C 1022.2 hPa North 4.8 km/h 11.3 km/h 74% 0 mm 164 W/m2
14:30 12.4 °C 7.9 °C 1022.2 hPa North 4.8 km/h 11.3 km/h 74% 0 mm 169 W/m2
14:40 12.3 °C 7.8 °C 1022.2 hPa North 3.2 km/h 11.3 km/h 74% 0 mm 119 W/m2
14:50 12 °C 7.5 °C 1022.2 hPa North 8 km/h 11.3 km/h 74% 0 mm 79 W/m2
15:00 11.7 °C 7.4 °C 1022.2 hPa North 3.2 km/h 9.7 km/h 75% 0 mm 67 W/m2
15:10 11.4 °C 7.1 °C 1021.9 hPa North 3.2 km/h 8 km/h 75% 0 mm 51 W/m2
15:20 11.1 °C 7.2 °C 1022.2 hPa NNW 1.6 km/h 11.3 km/h 77% 0 mm 41 W/m2
15:30 10.8 °C 6.9 °C 1021.9 hPa Calm   4.8 km/h 77% 0 mm 32 W/m2
15:40 10.6 °C 6.9 °C 1022.2 hPa North 1.6 km/h 6.4 km/h 78% 0 mm 23 W/m2
15:50 10.2 °C 6.6 °C 1022.2 hPa North 3.2 km/h 9.7 km/h 78% 0 mm 7 W/m2
16:00 9.9 °C 6.4 °C 1022.2 hPa North 3.2 km/h 9.7 km/h 79% 0 mm 7 W/m2
16:10 9.6 °C 6.3 °C 1022.2 hPa NW 1.6 km/h 9.7 km/h 80% 0 mm 0 W/m2
16:20 9.3 °C 6 °C 1021.9 hPa NNW 1.6 km/h 8 km/h 80% 0 mm 0 W/m2
16:30 8.9 °C 5.8 °C 1022.2 hPa NNW 1.6 km/h 8 km/h 81% 0 mm 0 W/m2
16:40 8.6 °C 5.5 °C 1022.2 hPa NNW 1.6 km/h 8 km/h 81% 0 mm 0 W/m2
16:50 8.3 °C 5.6 °C 1022.2 hPa Calm   8 km/h 83% 0 mm 0 W/m2
17:00 7.9 °C 5.4 °C 1022.2 hPa Calm   3.2 km/h 84% 0 mm 0 W/m2
17:10 7.6 °C 5.1 °C 1022.6 hPa Calm   3.2 km/h 84% 0 mm 0 W/m2
17:20 7.3 °C 4.9 °C 1022.6 hPa Calm   3.2 km/h 85% 0 mm 0 W/m2
17:30 6.8 °C 4.4 °C 1022.6 hPa Calm   3.2 km/h 85% 0 mm 0 W/m2
17:40 6.5 °C 4.2 °C 1022.6 hPa Calm   3.2 km/h 85% 0 mm 0 W/m2
17:50 6.1 °C 3.8 °C 1022.6 hPa WNW 1.6 km/h 3.2 km/h 85% 0 mm 0 W/m2
18:00 5.7 °C 3.6 °C 1022.9 hPa WNW 1.6 km/h 3.2 km/h 86% 0 mm 0 W/m2
18:10 5.4 °C 3.6 °C 1022.9 hPa Calm   4.8 km/h 88% 0 mm 0 W/m2
18:20 5.1 °C 2.9 °C 1022.9 hPa NW 1.6 km/h 3.2 km/h 86% 0 mm 0 W/m2
18:30 4.7 °C 2.9 °C 1022.9 hPa NNW 1.6 km/h 4.8 km/h 88% 0 mm 0 W/m2
18:40 4.4 °C 2.6 °C 1022.9 hPa Calm   4.8 km/h 88% 0 mm 0 W/m2
18:50 4.2 °C 2.6 °C 1022.9 hPa Calm   3.2 km/h 89% 0 mm 0 W/m2
19:00 4 °C 2.5 °C 1022.9 hPa NW 1.6 km/h 4.8 km/h 90% 0 mm 0 W/m2
19:10 3.8 °C 2.3 °C 1022.9 hPa Calm   3.2 km/h 90% 0 mm 0 W/m2
19:20 3.6 °C 2.1 °C 1022.9 hPa NW 3.2 km/h 4.8 km/h 90% 0 mm 0 W/m2
19:30 3.4 °C 1.9 °C 1022.9 hPa Calm   3.2 km/h 90% 0 mm 0 W/m2
19:40 3.2 °C 1.9 °C 1023.2 hPa Calm   1.6 km/h 91% 0 mm 0 W/m2
19:50 3 °C 1.7 °C 1022.9 hPa Calm   3.2 km/h 91% 0 mm 0 W/m2
20:00 2.8 °C 1.3 °C 1023.2 hPa Calm   3.2 km/h 90% 0 mm 0 W/m2
20:10 2.5 °C 1.2 °C 1023.2 hPa Calm   3.2 km/h 91% 0 mm 0 W/m2
20:20 2.3 °C 1.3 °C 1023.2 hPa Calm   3.2 km/h 93% 0 mm 0 W/m2
20:30 2.1 °C 1.1 °C 1023.2 hPa Calm   3.2 km/h 93% 0 mm 0 W/m2
20:40 2 °C 1 °C 1023.2 hPa Calm   3.2 km/h 93% 0 mm 0 W/m2
20:50 1.8 °C 0.8 °C 1023.2 hPa Calm   1.6 km/h 93% 0 mm 0 W/m2
21:00 1.6 °C 0.6 °C 1023.6 hPa NNW 1.6 km/h 3.2 km/h 93% 0 mm 0 W/m2
21:10 1.4 °C 0.4 °C 1023.6 hPa Calm   3.2 km/h 93% 0 mm 0 W/m2
21:20 1.2 °C 0.2 °C 1023.6 hPa Calm     93% 0 mm 0 W/m2
21:30 1.1 °C 0.1 °C 1023.6 hPa Calm   3.2 km/h 93% 0 mm 0 W/m2
21:40 1 °C 0 °C 1023.6 hPa Calm   3.2 km/h 93% 0 mm 0 W/m2
21:50 0.8 °C -0.1 °C 1023.6 hPa West 3.2 km/h 6.4 km/h 94% 0 mm 0 W/m2
22:00 1 °C 0.4 °C 1023.6 hPa WNW 3.2 km/h 8 km/h 96% 0 mm 0 W/m2
22:10 1.1 °C 0.8 °C 1023.6 hPa Calm   6.4 km/h 98% 0 mm 0 W/m2
22:20 1.1 °C 0.6 °C 1023.6 hPa Calm   3.2 km/h 96% 0 mm 0 W/m2
22:30 1 °C 0.4 °C 1023.6 hPa West 1.6 km/h 4.8 km/h 96% 0 mm 0 W/m2
22:40 1 °C 0.3 °C 1023.6 hPa Calm   3.2 km/h 95% 0 mm 0 W/m2
22:50 0.9 °C 0.2 °C 1023.6 hPa Calm   6.4 km/h 95% 0 mm 0 W/m2
23:00 0.9 °C 0.2 °C 1023.6 hPa Calm   4.8 km/h 95% 0 mm 0 W/m2
23:10 1 °C 0.4 °C 1023.6 hPa Calm   4.8 km/h 96% 0 mm 0 W/m2
23:20 1.2 °C 0.6 °C 1023.6 hPa NW 1.6 km/h 3.2 km/h 96% 0 mm 0 W/m2
23:30 1.2 °C 0.6 °C 1023.9 hPa Calm   1.6 km/h 96% 0 mm 0 W/m2
23:40 1.3 °C 0.7 °C 1023.9 hPa Calm   1.6 km/h 96% 0 mm 0 W/m2
23:50 1.4 °C 1.1 °C 1023.6 hPa Calm   3.2 km/h 98% 0 mm 0 W/m2
Knjazevac, Serbia
Compliments of Weather Underground - 2 mb